Time;durP1;ratioP1;P1;durP2;ratioP2;P2;SDS_P1;SDS_P2;PMS_P1;PMS_P2;Temp;Humidity;BMP_temperature;BMP_pressure;BME280_temperature;BME280_humidity;BME280_pressure;Samples;Min_cycle;Max_cycle;Signal;HPM_P1;HPM_P2
2022/07/12 00:02:01;;;;;;;7.20;2.92;;;384.40;2329.60;;;;;;4994680;28;20034;-81
2022/07/12 00:04:27;;;;;;;9.68;3.08;;;384.70;2329.60;;;;;;4994064;28;20181;-80
2022/07/12 00:06:52;;;;;;;6.55;3.10;;;384.70;2329.60;;;;;;4994419;28;20494;-81
2022/07/12 00:09:18;;;;;;;6.40;2.75;;;384.90;2329.60;;;;;;4994539;28;20098;-82
2022/07/12 00:11:44;;;;;;;8.68;3.20;;;384.90;2329.60;;;;;;4994191;28;20026;-83
2022/07/12 00:14:10;;;;;;;7.40;2.80;;;384.90;2329.60;;;;;;4994492;28;20030;-82
2022/07/12 00:16:36;;;;;;;8.93;2.95;;;384.70;2329.60;;;;;;4994233;28;20080;-81
2022/07/12 00:19:02;;;;;;;7.18;2.92;;;384.80;2329.60;;;;;;4994070;28;20062;-79
2022/07/12 00:21:28;;;;;;;23.13;3.67;;;384.80;2329.60;;;;;;4994179;28;20477;-80
2022/07/12 00:23:54;;;;;;;9.90;3.30;;;384.70;2329.60;;;;;;4995279;28;20022;-80
2022/07/12 00:26:19;;;;;;;5.40;3.13;;;384.70;2329.60;;;;;;4994424;28;20026;-81
2022/07/12 00:28:45;;;;;;;9.85;3.45;;;384.70;2329.60;;;;;;4995323;28;20099;-82
2022/07/12 00:31:11;;;;;;;9.05;3.45;;;384.80;2329.60;;;;;;4993644;28;20022;-80
2022/07/12 00:33:37;;;;;;;6.60;3.40;;;384.70;2329.60;;;;;;4992931;28;20030;-81
2022/07/12 00:36:03;;;;;;;7.88;3.38;;;384.70;2329.60;;;;;;4993941;28;20023;-79
2022/07/12 00:38:29;;;;;;;6.97;2.80;;;384.60;2329.60;;;;;;4993499;28;20034;-79
2022/07/12 00:40:55;;;;;;;6.78;3.20;;;384.40;2329.60;;;;;;4993800;28;20073;-81
2022/07/12 00:43:21;;;;;;;7.13;3.70;;;384.30;2329.60;;;;;;4993759;28;20038;-80
2022/07/12 00:45:46;;;;;;;9.05;3.10;;;384.30;2329.60;;;;;;4993442;28;20040;-82
2022/07/12 00:48:13;;;;;;;7.15;3.58;;;384.30;2329.60;;;;;;4993802;28;20034;-81
2022/07/12 00:50:39;;;;;;;8.27;3.83;;;384.10;2329.60;;;;;;4993762;28;20121;-80
2022/07/12 00:53:05;;;;;;;10.32;3.38;;;384.10;2329.60;;;;;;4993324;28;20023;-79
2022/07/12 00:55:31;;;;;;;7.75;3.65;;;384.10;2329.60;;;;;;4993665;28;20121;-81
2022/07/12 00:57:57;;;;;;;7.68;3.30;;;384.10;2329.60;;;;;;4993428;28;20129;-82
2022/07/12 01:00:28;;;;;;;6.07;3.17;;;384.10;2329.60;;;;;;4993662;28;20439;-80
2022/07/12 01:02:56;;;;;;;5.60;3.22;;;359.30;2329.60;;;;;;4994382;28;20042;-81
2022/07/12 01:05:22;;;;;;;6.80;3.50;;;384.10;2329.60;;;;;;4993689;28;20467;-80
2022/07/12 01:07:48;;;;;;;7.18;3.40;;;384.10;2329.60;;;;;;4993181;28;20045;-79
2022/07/12 01:10:14;;;;;;;6.68;3.10;;;384.00;2329.60;;;;;;4993216;28;20046;-81
2022/07/12 01:12:41;;;;;;;5.97;3.22;;;384.00;2329.60;;;;;;4994528;28;20104;-82
2022/07/12 01:15:09;;;;;;;6.70;3.20;;;359.20;2329.60;;;;;;4993212;28;20034;-81
2022/07/12 01:17:35;;;;;;;5.80;2.70;;;359.30;2329.60;;;;;;4993324;28;20037;-80
2022/07/12 01:20:03;;;;;;;7.63;3.40;;;359.20;2329.60;;;;;;4993190;28;20125;-81
2022/07/12 01:22:40;;;;;;;6.65;3.30;;;359.20;2329.60;;;;;;4993235;28;20077;-83
2022/07/12 01:25:06;;;;;;;6.22;2.92;;;359.20;2329.60;;;;;;4993335;28;20034;-82
2022/07/12 01:27:33;;;;;;;7.70;3.10;;;384.00;2329.60;;;;;;4993098;28;20471;-80
2022/07/12 01:30:02;;;;;;;5.65;3.03;;;384.00;2329.60;;;;;;4993398;28;20545;-79
2022/07/12 01:32:30;;;;;;;4.07;2.85;;;359.20;2329.60;;;;;;4993382;28;20027;-79
2022/07/12 01:35:04;;;;;;;4.68;2.60;;;359.30;2329.60;;;;;;4993044;28;20122;-78
2022/07/12 01:37:36;;;;;;;5.82;2.67;;;359.20;2329.60;;;;;;4993045;28;20121;-79
2022/07/12 01:40:04;;;;;;;6.10;2.83;;;359.30;2329.60;;;;;;4993137;28;20038;-81
2022/07/12 01:42:31;;;;;;;4.28;2.55;;;359.00;2329.60;;;;;;4992774;28;20030;-80
2022/07/12 01:44:57;;;;;;;6.75;2.45;;;359.00;2329.60;;;;;;4995189;28;20110;-80
2022/07/12 01:47:25;;;;;;;8.27;2.80;;;359.20;2329.60;;;;;;4997104;28;20030;-79
2022/07/12 01:49:51;;;;;;;6.10;2.80;;;359.00;2329.60;;;;;;4996890;28;20057;-81
2022/07/12 01:52:17;;;;;;;6.38;2.50;;;359.00;2329.60;;;;;;4996772;28;20030;-81
2022/07/12 01:54:43;;;;;;;7.22;2.95;;;359.00;2329.60;;;;;;4997071;28;20446;-80
2022/07/12 01:57:09;;;;;;;6.18;2.78;;;358.90;2329.60;;;;;;4996704;28;20034;-80
2022/07/12 01:59:36;;;;;;;5.03;2.72;;;358.90;2329.60;;;;;;4996900;28;20053;-81
2022/07/12 02:02:02;;;;;;;5.22;2.60;;;358.80;2329.60;;;;;;4996738;28;20026;-82
2022/07/12 02:04:28;;;;;;;8.43;2.83;;;358.80;2329.60;;;;;;4996875;28;20042;-82
2022/07/12 02:06:55;;;;;;;7.85;2.90;;;359.00;2329.60;;;;;;4996868;28;20030;-81
2022/07/12 02:09:21;;;;;;;7.97;2.72;;;359.00;2329.60;;;;;;4996570;28;20113;-81
2022/07/12 02:11:47;;;;;;;5.45;3.00;;;358.60;2329.60;;;;;;4996866;28;20026;-81
2022/07/12 02:14:13;;;;;;;6.10;2.72;;;358.60;2329.60;;;;;;4996837;28;20022;-81
2022/07/12 02:16:40;;;;;;;7.65;2.88;;;358.80;2329.60;;;;;;4996183;28;20030;-82
2022/07/12 02:19:07;;;;;;;5.70;2.90;;;358.50;2329.60;;;;;;4996847;28;20030;-81
2022/07/12 02:21:33;;;;;;;5.63;2.83;;;358.80;2329.60;;;;;;4996651;28;20026;-82
2022/07/12 02:23:59;;;;;;;6.07;3.05;;;359.10;2329.60;;;;;;4996338;28;20027;-82
2022/07/12 02:26:26;;;;;;;6.30;2.50;;;358.80;2329.60;;;;;;4996575;28;20120;-80
2022/07/12 02:28:51;;;;;;;6.30;2.72;;;358.80;2329.60;;;;;;4996316;28;20532;-80
2022/07/12 02:31:17;;;;;;;5.90;2.65;;;358.60;2329.60;;;;;;4996083;28;20030;-80
2022/07/12 02:33:43;;;;;;;5.93;2.88;;;358.60;2329.60;;;;;;4996254;28;20426;-81
2022/07/12 02:36:09;;;;;;;7.07;2.75;;;358.70;2329.60;;;;;;4996338;28;20038;-80
2022/07/12 02:38:35;;;;;;;6.10;3.08;;;358.70;2329.60;;;;;;4996253;28;20114;-82
2022/07/12 02:41:01;;;;;;;5.55;2.70;;;358.70;2329.60;;;;;;4996238;28;20029;-80
2022/07/12 02:43:29;;;;;;;5.50;2.90;;;358.60;2329.60;;;;;;4996092;28;20041;-81
2022/07/12 02:46:02;;;;;;;4.97;2.60;;;358.60;2329.60;;;;;;4996067;28;20030;-81
2022/07/12 02:48:28;;;;;;;6.13;3.03;;;358.50;2329.60;;;;;;4996154;28;20033;-82
2022/07/12 02:50:54;;;;;;;5.18;2.65;;;358.60;2329.60;;;;;;4996004;28;20030;-82
2022/07/12 02:53:20;;;;;;;6.47;2.65;;;358.60;2329.60;;;;;;4996019;28;20374;-81
2022/07/12 02:55:46;;;;;;;8.73;2.72;;;358.60;2329.60;;;;;;4994969;28;20455;-80
2022/07/12 02:58:12;;;;;;;4.70;2.63;;;358.60;2329.60;;;;;;4995785;28;20049;-81
2022/07/12 03:00:38;;;;;;;6.07;2.63;;;358.60;2329.60;;;;;;4996063;28;20038;-80
2022/07/12 03:03:07;;;;;;;4.40;2.40;;;358.50;2329.60;;;;;;4995523;28;20050;-80
2022/07/12 03:05:34;;;;;;;5.38;2.90;;;;;;;;;;4995698;28;20027;-80
2022/07/12 03:08:00;;;;;;;7.32;3.45;;;333.70;2329.60;;;;;;5012180;28;20035;-80
2022/07/12 03:10:26;;;;;;;6.78;3.35;;;333.70;2329.60;;;;;;4995535;28;20027;-82
2022/07/12 03:12:52;;;;;;;7.95;2.90;;;333.40;2329.60;;;;;;4995401;28;20037;-80
2022/07/12 03:15:18;;;;;;;5.32;2.95;;;333.70;2329.60;;;;;;4995672;28;20048;-80
2022/07/12 03:17:44;;;;;;;7.90;3.97;;;333.70;2329.60;;;;;;4995578;28;20466;-80
2022/07/12 03:20:11;;;;;;;5.18;3.00;;;358.40;2329.60;;;;;;4995250;28;20037;-81
2022/07/12 03:22:46;;;;;;;7.80;3.80;;;358.50;2329.60;;;;;;4996824;28;20532;-82
2022/07/12 03:25:12;;;;;;;6.63;3.50;;;358.50;2329.60;;;;;;4995515;28;20460;-81
2022/07/12 03:27:39;;;;;;;4.55;2.50;;;333.70;2329.60;;;;;;4995321;28;20030;-81
2022/07/12 03:30:05;;;;;;;7.60;2.60;;;333.70;2329.60;;;;;;4995546;28;20041;-80
2022/07/12 03:32:31;;;;;;;8.10;2.83;;;333.70;2329.60;;;;;;4995231;28;20070;-81
2022/07/12 03:34:57;;;;;;;5.72;3.00;;;333.70;2329.60;;;;;;4995085;28;20065;-81
2022/07/12 03:37:23;;;;;;;7.35;3.00;;;333.70;2329.60;;;;;;4995227;28;20026;-81
2022/07/12 03:39:49;;;;;;;7.20;2.70;;;333.70;2329.60;;;;;;4995146;28;20031;-81
2022/07/12 03:42:15;;;;;;;5.55;3.22;;;333.70;2329.60;;;;;;4995349;28;20034;-81
2022/07/12 03:44:41;;;;;;;6.60;3.03;;;333.70;2329.60;;;;;;4995264;28;20030;-81
2022/07/12 03:47:07;;;;;;;7.82;2.90;;;333.70;2329.60;;;;;;4994866;28;20426;-80
2022/07/12 03:49:32;;;;;;;5.22;2.20;;;333.70;2329.60;;;;;;4995113;28;20027;-82
2022/07/12 03:51:58;;;;;;;5.18;2.60;;;333.70;2329.60;;;;;;4995127;28;20109;-80
2022/07/12 03:54:24;;;;;;;5.00;2.90;;;333.50;2329.60;;;;;;4994938;28;20032;-80
2022/07/12 03:59:34;;;;;;;5.38;2.92;;;333.60;2329.60;;;;;;4996301;28;20539;-81
2022/07/12 04:02:01;;;;;;;5.75;2.58;;;333.40;2329.60;;;;;;4994636;28;20027;-80
2022/07/12 04:04:27;;;;;;;6.82;3.17;;;333.50;2329.60;;;;;;4996132;28;20050;-81
2022/07/12 04:06:54;;;;;;;7.75;3.10;;;333.60;2329.60;;;;;;4994561;28;20030;-79
2022/07/12 04:09:20;;;;;;;9.25;2.97;;;333.60;2329.60;;;;;;4995268;28;20033;-83
2022/07/12 04:11:46;;;;;;;6.03;2.85;;;333.60;2329.60;;;;;;4997780;28;20521;-81
2022/07/12 04:14:12;;;;;;;7.15;2.80;;;333.70;2329.60;;;;;;4995798;28;20183;-82
2022/07/12 04:16:38;;;;;;;8.57;3.15;;;333.70;2329.60;;;;;;4994136;28;20038;-82
2022/07/12 04:19:04;;;;;;;4.22;2.80;;;333.60;2329.60;;;;;;4994638;28;20164;-81
2022/07/12 04:21:31;;;;;;;6.13;2.60;;;333.60;2329.60;;;;;;4994515;28;20029;-82
2022/07/12 04:23:57;;;;;;;7.07;2.88;;;333.70;2329.60;;;;;;4994354;28;20117;-81
2022/07/12 04:26:23;;;;;;;7.97;2.58;;;358.40;2329.60;;;;;;4994465;28;20112;-82
2022/07/12 04:28:49;;;;;;;7.97;2.70;;;358.50;2329.60;;;;;;4993991;28;20022;-81
2022/07/12 04:31:14;;;;;;;7.20;2.53;;;358.50;2329.60;;;;;;4994131;28;20445;-80
2022/07/12 04:33:40;;;;;;;5.22;2.53;;;358.60;2329.60;;;;;;4994059;28;20062;-82
2022/07/12 04:36:06;;;;;;;10.63;2.78;;;358.50;2329.60;;;;;;4993810;28;20526;-82
2022/07/12 04:38:32;;;;;;;6.25;2.65;;;358.60;2329.60;;;;;;4994059;28;20114;-81
2022/07/12 04:40:58;;;;;;;5.10;2.70;;;358.60;2329.60;;;;;;4994033;28;20470;-83
2022/07/12 04:43:24;;;;;;;7.43;2.50;;;358.70;2329.60;;;;;;4994006;28;20030;-83
2022/07/12 04:45:50;;;;;;;6.32;3.30;;;358.80;2329.60;;;;;;4993999;28;20034;-83
2022/07/12 04:48:16;;;;;;;7.03;2.78;;;358.80;2329.60;;;;;;4993894;28;20023;-82
2022/07/12 04:50:42;;;;;;;8.07;3.03;;;358.80;2329.60;;;;;;4993673;28;20058;-81
2022/07/12 04:53:08;;;;;;;9.15;2.63;;;358.80;2329.60;;;;;;4993757;28;20030;-81
2022/07/12 04:55:34;;;;;;;9.02;3.15;;;358.90;2329.60;;;;;;4994764;28;20048;-81
2022/07/12 04:58:00;;;;;;;5.32;2.80;;;358.70;2329.60;;;;;;4993565;28;20470;-80
2022/07/12 05:00:26;;;;;;;9.63;3.92;;;358.70;2329.60;;;;;;4993771;28;20080;-81
2022/07/12 05:02:51;;;;;;;9.60;4.45;;;358.70;2329.60;;;;;;4993401;28;20050;-82
2022/07/12 05:05:17;;;;;;;7.57;4.22;;;358.70;2329.60;;;;;;4993449;28;20027;-80
2022/07/12 05:07:43;;;;;;;8.25;3.70;;;359.00;2329.60;;;;;;4993534;28;20031;-81
2022/07/12 05:10:09;;;;;;;7.70;3.58;;;358.80;2329.60;;;;;;4993547;28;20037;-81
2022/07/12 05:12:35;;;;;;;8.52;2.83;;;358.80;2329.60;;;;;;4993412;28;20085;-81
2022/07/12 05:15:02;;;;;;;5.88;3.13;;;359.00;2329.60;;;;;;4993417;28;20037;-81
2022/07/12 05:17:27;;;;;;;8.63;3.38;;;359.20;2329.60;;;;;;4993300;28;20045;-81
2022/07/12 05:19:54;;;;;;;5.55;3.15;;;359.20;2329.60;;;;;;4992748;28;20030;-80
2022/07/12 05:22:19;;;;;;;9.65;3.10;;;384.10;2329.60;;;;;;4993306;28;20113;-82
2022/07/12 05:24:45;;;;;;;7.60;3.90;;;384.10;2329.60;;;;;;4993122;28;20121;-80
2022/07/12 05:27:11;;;;;;;6.57;2.95;;;384.30;2329.60;;;;;;4993218;28;20033;-80
2022/07/12 05:29:37;;;;;;;5.55;3.00;;;384.20;2329.60;;;;;;4993281;28;20474;-81
2022/07/12 05:32:03;;;;;;;11.60;3.70;;;384.30;2329.60;;;;;;4993010;28;20022;-82
2022/07/12 05:34:29;;;;;;;5.22;2.67;;;384.30;2329.60;;;;;;4993324;28;20034;-81
2022/07/12 05:36:55;;;;;;;7.60;2.60;;;384.40;2329.60;;;;;;4993244;28;20038;-82
2022/07/12 05:39:21;;;;;;;8.50;4.28;;;384.40;2329.60;;;;;;4992582;28;20050;-80
2022/07/12 05:41:47;;;;;;;7.35;2.95;;;384.70;2329.60;;;;;;4993078;28;20030;-80
2022/07/12 05:44:13;;;;;;;7.47;3.25;;;384.90;2329.60;;;;;;4993179;28;20030;-82
2022/07/12 05:46:40;;;;;;;6.20;4.03;;;409.70;2355.20;;;;;;4992986;28;20534;-79
2022/07/12 05:49:06;;;;;;;9.07;4.82;;;409.60;2355.20;;;;;;4994600;28;20458;-82
2022/07/12 05:54:16;;;;;;;14.73;7.10;;;409.70;2355.20;;;;;;4994183;28;20089;-80
2022/07/12 05:56:42;;;;;;;9.15;5.15;;;410.00;2355.20;;;;;;4992931;28;20034;-79
2022/07/12 05:59:08;;;;;;;10.43;4.20;;;409.90;2355.20;;;;;;4993021;28;20031;-80
2022/07/12 06:01:34;;;;;;;7.45;3.88;;;409.90;2355.20;;;;;;4992806;28;20061;-80
2022/07/12 06:04:00;;;;;;;9.57;3.22;;;410.20;2355.20;;;;;;4992525;28;20101;-79
2022/07/12 06:06:25;;;;;;;7.60;3.03;;;410.30;2355.20;;;;;;4993018;28;20117;-81
2022/07/12 06:08:51;;;;;;;6.82;3.30;;;410.50;2355.20;;;;;;4999482;28;20026;-82
2022/07/12 06:11:17;;;;;;;5.00;2.63;;;410.50;2355.20;;;;;;5012502;28;20030;-81
2022/07/12 06:13:43;;;;;;;7.07;2.90;;;435.30;2355.20;;;;;;5012827;28;20026;-81
2022/07/12 06:16:10;;;;;;;6.82;2.97;;;435.30;2355.20;;;;;;5012110;28;20058;-82
2022/07/12 06:18:36;;;;;;;7.45;2.45;;;435.60;2355.20;;;;;;5013579;28;20025;-82
2022/07/12 06:21:02;;;;;;;8.38;2.92;;;435.60;2355.20;;;;;;5012148;28;20026;-83
2022/07/12 06:23:28;;;;;;;7.15;2.67;;;435.60;2355.20;;;;;;5013411;28;20433;-82
2022/07/12 06:25:54;;;;;;;6.40;2.85;;;435.60;2355.20;;;;;;5012500;28;20034;-84
2022/07/12 06:28:19;;;;;;;5.25;2.92;;;435.50;2355.20;;;;;;5012274;28;20385;-82
2022/07/12 06:30:45;;;;;;;9.27;3.15;;;435.80;2355.20;;;;;;5014073;28;20037;-82
2022/07/12 06:33:11;;;;;;;7.18;2.55;;;460.80;2380.80;;;;;;5016144;28;20485;-83
2022/07/12 06:35:37;;;;;;;8.52;3.05;;;460.80;2380.80;;;;;;5017044;28;20109;-83
2022/07/12 06:38:02;;;;;;;5.38;2.33;;;460.90;2380.80;;;;;;5015861;28;20045;-84
2022/07/12 06:40:29;;;;;;;5.28;2.88;;;461.10;2380.80;;;;;;5015847;28;20022;-82
2022/07/12 06:42:54;;;;;;;6.88;2.75;;;461.30;2380.80;;;;;;5015730;28;20026;-82
2022/07/12 06:45:20;;;;;;;5.97;2.78;;;461.60;2380.80;;;;;;5017044;28;20056;-82
2022/07/12 06:47:46;;;;;;;8.65;3.90;;;461.70;2380.80;;;;;;5015918;28;20034;-83
2022/07/12 06:50:12;;;;;;;5.95;3.00;;;486.50;2380.80;;;;;;5015595;28;20087;-83
2022/07/12 06:52:38;;;;;;;7.35;2.72;;;486.70;2380.80;;;;;;5015676;28;20084;-82
2022/07/12 06:55:04;;;;;;;8.35;3.00;;;486.70;2380.80;;;;;;5015552;28;20053;-83
2022/07/12 06:57:30;;;;;;;5.95;2.65;;;486.90;2380.80;;;;;;5015221;28;20065;-83
2022/07/12 06:59:59;;;;;;;6.13;2.92;;;487.00;2380.80;;;;;;5015584;28;20026;-81
2022/07/12 07:02:25;;;;;;;6.35;2.75;;;487.10;2380.80;;;;;;5015515;28;20080;-82
2022/07/12 07:04:51;;;;;;;6.32;2.65;;;486.90;2380.80;;;;;;5015061;28;20050;-82
2022/07/12 07:07:17;;;;;;;8.27;2.40;;;487.10;2380.80;;;;;;5015609;28;20064;-81
2022/07/12 07:09:43;;;;;;;8.27;2.55;;;487.10;2380.80;;;;;;5014946;28;20077;-80
2022/07/12 07:12:09;;;;;;;10.48;2.30;;;487.10;2380.80;;;;;;5015100;28;20429;-83
2022/07/12 07:14:35;;;;;;;6.25;2.50;;;487.20;2380.80;;;;;;5015297;28;20061;-82
2022/07/12 07:17:01;;;;;;;6.45;2.40;;;512.00;2380.80;;;;;;5014970;28;20034;-82
2022/07/12 07:19:27;;;;;;;13.55;2.75;;;512.30;2380.80;;;;;;5015105;28;20022;-81
2022/07/12 07:21:58;;;;;;;4.07;2.30;;;512.20;2355.20;;;;;;5015113;28;20032;-81
2022/07/12 07:24:24;;;;;;;5.30;2.88;;;512.10;2355.20;;;;;;5015984;28;20104;-80
2022/07/12 07:26:50;;;;;;;8.18;2.83;;;512.50;2380.80;;;;;;5014969;28;20058;-81
2022/07/12 07:32:00;;;;;;;8.35;3.75;;;512.60;2329.60;;;;;;5016043;28;20125;-80
2022/07/12 07:34:26;;;;;;;10.40;2.90;;;512.50;2329.60;;;;;;5014994;28;20069;-80
2022/07/12 07:36:53;;;;;;;7.15;3.55;;;512.30;2304.00;;;;;;5015915;28;20038;-81
2022/07/12 07:39:18;;;;;;;6.35;2.10;;;512.20;2304.00;;;;;;5014504;28;20029;-79
2022/07/12 07:41:44;;;;;;;12.18;2.90;;;512.00;2304.00;;;;;;5014114;28;20076;-82
2022/07/12 07:44:10;;;;;;;8.35;2.20;;;487.30;2329.60;;;;;;5014862;28;20029;-82
2022/07/12 07:46:36;;;;;;;8.00;2.63;;;512.00;2329.60;;;;;;5014529;28;20033;-82
2022/07/12 07:49:03;;;;;;;6.40;2.78;;;512.10;2304.00;;;;;;5014507;28;20501;-82
2022/07/12 07:51:29;;;;;;;6.43;3.13;;;512.20;2304.00;;;;;;5014523;28;20026;-82
2022/07/12 07:53:55;;;;;;;6.70;3.20;;;512.30;2380.80;;;;;;5014423;28;20030;-82
2022/07/12 07:56:21;;;;;;;10.88;2.53;;;512.40;2329.60;;;;;;5014457;28;20029;-82
2022/07/12 07:58:46;;;;;;;5.15;2.45;;;512.30;2278.40;;;;;;5014288;28;20026;-81
2022/07/12 08:01:12;;;;;;;5.35;2.40;;;512.40;2278.40;;;;;;5014405;28;20477;-80
2022/07/12 08:03:39;;;;;;;9.80;2.45;;;512.50;2278.40;;;;;;5014118;28;20503;-80
2022/07/12 08:06:05;;;;;;;9.85;2.60;;;512.70;2304.00;;;;;;5014108;28;20121;-80
2022/07/12 08:08:30;;;;;;;10.93;3.10;;;537.70;2278.40;;;;;;5014253;28;20026;-81
2022/07/12 08:10:56;;;;;;;6.95;2.35;;;537.80;2278.40;;;;;;5015082;28;20477;-81
2022/07/12 08:13:23;;;;;;;6.72;2.67;;;537.80;2278.40;;;;;;5014071;28;20034;-81
2022/07/12 08:15:49;;;;;;;7.85;2.92;;;537.70;2278.40;;;;;;5014050;28;20041;-79
2022/07/12 08:18:15;;;;;;;9.48;2.67;;;512.50;2227.20;;;;;;5013992;28;20038;-79
2022/07/12 08:20:41;;;;;;;7.25;2.70;;;537.70;2278.40;;;;;;5013494;28;20540;-80
2022/07/12 08:23:07;;;;;;;11.18;3.10;;;538.00;2252.80;;;;;;5013670;28;20018;-80
2022/07/12 08:25:33;;;;;;;8.93;3.33;;;538.20;2227.20;;;;;;5013670;28;20516;-80
2022/07/12 08:27:59;;;;;;;6.32;2.60;;;538.30;2278.40;;;;;;5013596;28;20026;-80
2022/07/12 08:30:25;;;;;;;7.07;2.25;;;538.30;2201.60;;;;;;5013860;28;20132;-79
2022/07/12 08:32:51;;;;;;;8.85;3.00;;;538.30;2150.40;;;;;;5013761;28;20121;-79
2022/07/12 08:35:16;;;;;;;6.35;2.90;;;538.30;2176.00;;;;;;5013595;28;20026;-78
2022/07/12 08:37:42;;;;;;;9.05;3.20;;;538.30;2176.00;;;;;;5013501;28;20470;-81
2022/07/12 08:40:09;;;;;;;7.75;3.30;;;538.20;2150.40;;;;;;5013605;28;20083;-81
2022/07/12 08:42:35;;;;;;;5.97;2.45;;;538.40;2150.40;;;;;;5013178;28;20026;-82
2022/07/12 08:45:01;;;;;;;4.80;2.58;;;538.50;2150.40;;;;;;5013673;28;20109;-81
2022/07/12 08:47:27;;;;;;;5.43;1.70;;;563.20;2124.80;;;;;;5013820;28;20061;-83
2022/07/12 08:53:27;;;;;;;6.70;2.00;;;563.20;2150.40;;;;;;4973871;28;20387;-83
2022/07/12 08:55:53;;;;;;;5.57;2.50;;;563.20;2201.60;;;;;;4957426;28;20461;-81
2022/07/12 08:58:19;;;;;;;6.38;2.75;;;563.20;2201.60;;;;;;5009876;28;20065;-83
2022/07/12 09:00:45;;;;;;;11.00;4.53;;;563.50;2150.40;;;;;;5013841;28;20493;-86
2022/07/12 09:03:13;;;;;;;6.25;3.10;;;563.80;2201.60;;;;;;5013547;28;20042;-86
2022/07/12 09:05:51;;;;;;;6.38;2.40;;;563.60;2201.60;;;;;;5013994;28;20057;-85
2022/07/12 09:08:18;;;;;;;6.53;3.17;;;563.60;2201.60;;;;;;5014000;28;20026;-84
2022/07/12 09:10:50;;;;;;;5.40;2.42;;;563.90;2176.00;;;;;;5013998;28;20043;-86
2022/07/12 09:13:17;;;;;;;5.30;2.22;;;588.90;2124.80;;;;;;5013424;28;20037;-87
2022/07/12 09:15:43;;;;;;;6.80;4.03;;;589.10;2048.00;;;;;;5013630;28;20049;-86
2022/07/12 09:18:17;;;;;;;6.82;2.33;;;589.20;2073.60;;;;;;5013272;28;20478;-85
2022/07/12 09:20:50;;;;;;;4.03;2.00;;;589.50;2022.40;;;;;;5013729;28;20022;-85
2022/07/12 09:23:17;;;;;;;12.77;5.15;;;589.60;2022.40;;;;;;5013442;28;20101;-87
2022/07/12 09:25:47;;;;;;;7.90;2.78;;;614.60;1996.80;;;;;;5013355;28;20183;-86
2022/07/12 09:28:13;;;;;;;5.25;2.20;;;615.00;2048.00;;;;;;5013553;28;20100;-87
2022/07/12 09:30:50;;;;;;;3.90;1.70;;;615.20;1894.40;;;;;;5013500;28;20029;-87
2022/07/12 09:36:06;;;;;;;10.82;5.78;;;614.80;1894.40;;;;;;5014356;28;20104;-87
2022/07/12 09:38:39;;;;;;;6.55;2.20;;;614.50;1894.40;;;;;;5012993;28;20088;-87
2022/07/12 09:41:07;;;;;;;3.35;1.45;;;589.60;1920.00;;;;;;5013636;28;20026;-87
2022/07/12 09:43:33;;;;;;;7.40;3.15;;;589.50;1920.00;;;;;;5013333;28;20022;-86
2022/07/12 09:46:00;;;;;;;5.15;1.90;;;614.40;1945.60;;;;;;5013488;28;20073;-89
2022/07/12 09:48:28;;;;;;;5.57;1.75;;;614.70;1868.80;;;;;;5012999;28;20060;-88
2022/07/12 09:50:55;;;;;;;5.20;1.58;;;;;;;;;;5013498;28;20122;-88
2022/07/12 09:53:27;;;;;;;3.40;2.22;;;;;;;;;;5007396;28;20054;-87
2022/07/12 09:55:54;;;;;;;5.22;1.70;;;640.60;1740.80;;;;;;4993367;28;20113;-88
2022/07/12 09:58:41;;;;;;;4.45;1.40;;;;;;;;;;4993450;28;20061;-86
2022/07/12 10:01:08;;;;;;;6.22;1.33;;;;;;;;;;4979905;28;20546;-85
2022/07/12 10:03:35;;;;;;;3.55;1.55;;;;;;;;;;4992956;28;20074;-86
2022/07/12 10:06:02;;;;;;;5.93;2.15;;;;;;;;;;4995220;28;20031;-86
2022/07/12 10:08:30;;;;;;;10.18;2.00;;;;;;;;;;4997418;28;20026;-83
2022/07/12 10:10:56;;;;;;;6.68;2.35;;;;;;;;;;4996989;28;20026;-86
2022/07/12 10:13:23;;;;;;;5.03;2.47;;;666.30;1689.60;;;;;;4997128;28;20109;-87
2022/07/12 10:15:50;;;;;;;4.25;2.00;;;666.20;1715.20;;;;;;4996770;28;20026;-86
2022/07/12 10:18:20;;;;;;;4.88;1.23;;;;;;;;;;4996624;28;20121;-82
2022/07/12 10:20:48;;;;;;;4.13;2.10;;;691.40;1664.00;;;;;;4996466;28;20018;-83
2022/07/12 10:23:20;;;;;;;5.88;1.75;;;691.30;1612.80;;;;;;4996644;28;20490;-83
2022/07/12 10:25:49;;;;;;;5.38;2.08;;;691.30;1638.40;;;;;;5003131;28;20026;-85
2022/07/12 10:28:15;;;;;;;5.25;1.95;;;691.40;1664.00;;;;;;5016660;28;20441;-83
2022/07/12 10:30:47;;;;;;;4.53;1.45;;;666.30;1715.20;;;;;;5016665;28;20034;-83
2022/07/12 10:33:21;;;;;;;4.88;1.80;;;666.00;1638.40;;;;;;5015993;28;20593;-84
2022/07/12 10:36:07;;;;;;;5.78;3.45;;;665.60;1689.60;;;;;;4996252;28;20036;-84
2022/07/12 10:38:34;;;;;;;6.75;3.00;;;640.70;1664.00;;;;;;4996468;28;20022;-88
2022/07/12 10:41:24;;;;;;;5.03;3.13;;;640.50;1715.20;;;;;;4996507;28;20044;-86
2022/07/12 10:44:05;;;;;;;7.93;2.75;;;640.30;1766.40;;;;;;4985916;28;20037;-86
2022/07/12 10:46:33;;;;;;;8.45;2.55;;;640.10;1766.40;;;;;;4996075;28;20077;-85
2022/07/12 10:49:28;;;;;;;4.35;1.95;;;640.10;1792.00;;;;;;4996330;28;20050;-88
2022/07/12 10:52:10;;;;;;;7.28;2.70;;;640.60;1766.40;;;;;;4997358;28;20038;-87
2022/07/12 10:55:14;;;;;;;4.80;1.90;;;666.00;1792.00;;;;;;4996273;28;20026;-85
2022/07/12 10:57:46;;;;;;;4.47;2.00;;;665.70;1792.00;;;;;;4995786;28;20069;-87
2022/07/12 11:00:13;;;;;;;;;;;665.60;1740.80;;;;;;5008669;28;20072;-85
2022/07/12 11:02:39;;;;;;;8.07;2.53;;;665.70;1689.60;;;;;;5015645;28;20308;-84
2022/07/12 11:05:06;;;;;;;4.43;1.80;;;640.70;1664.00;;;;;;5015823;28;20034;-88
2022/07/12 11:07:35;;;;;;;3.63;1.58;;;640.60;1689.60;;;;;;5016230;28;20116;-90
2022/07/12 11:38:27;;;;;;;3.58;1.65;;;716.80;1587.20;;;;;;5085230;23;20064;-85
2022/07/12 11:41:00;;;;;;;3.55;1.40;;;716.80;1587.20;;;;;;5018012;28;20035;-82
2022/07/12 11:43:26;;;;;;;7.22;1.63;;;717.10;1587.20;;;;;;5017872;28;20067;-84
2022/07/12 12:30:32;;;;;;;4.57;2.17;;;742.90;1561.60;;;;;;5035236;28;20028;-85
2022/07/12 12:33:39;;;;;;;13.35;1.98;;;742.50;1561.60;;;;;;5018145;28;20500;-85
2022/07/12 12:36:16;;;;;;;3.75;1.50;;;717.30;1587.20;;;;;;5017282;28;20033;-85
2022/07/12 12:38:43;;;;;;;6.85;2.60;;;717.10;1612.80;;;;;;5017288;28;20561;-85
2022/07/12 12:41:10;;;;;;;8.20;2.72;;;692.00;1587.20;;;;;;5017405;28;20021;-84
2022/07/12 12:43:35;;;;;;;4.50;2.30;;;691.80;1587.20;;;;;;5017254;28;20076;-83
2022/07/12 12:46:01;;;;;;;8.35;3.05;;;692.10;1587.20;;;;;;5016843;28;20409;-82
2022/07/12 12:48:30;;;;;;;6.57;2.22;;;717.10;1587.20;;;;;;5017033;28;20389;-82
2022/07/12 12:51:07;;;;;;;4.65;1.80;;;717.10;1612.80;;;;;;5016654;28;20363;-82
2022/07/12 12:53:34;;;;;;;6.60;2.00;;;692.10;1587.20;;;;;;5016659;28;20025;-81
2022/07/12 12:56:00;;;;;;;3.65;1.50;;;691.80;1612.80;;;;;;5016867;28;20036;-82
2022/07/12 12:58:26;;;;;;;3.70;1.95;;;691.60;1612.80;;;;;;5016648;28;20456;-82
2022/07/12 13:00:54;;;;;;;5.57;2.30;;;691.50;1638.40;;;;;;5016729;28;20120;-80
2022/07/12 13:03:26;;;;;;;8.10;1.90;;;691.80;1612.80;;;;;;5016411;28;20120;-81
2022/07/12 13:05:52;;;;;;;;;;;691.90;1561.60;;;;;;5017180;28;20021;-82
2022/07/12 13:08:18;;;;;;;6.93;2.75;;;716.80;1587.20;;;;;;5016818;28;20238;-83
2022/07/12 13:10:46;;;;;;;6.40;2.17;;;717.20;1587.20;;;;;;5016294;28;20030;-83
2022/07/12 13:13:12;;;;;;;4.72;1.60;;;717.40;1561.60;;;;;;5016693;28;20025;-83
2022/07/12 13:15:38;;;;;;;5.22;2.63;;;717.00;1561.60;;;;;;5016207;28;20049;-80
2022/07/12 13:18:05;;;;;;;6.88;1.98;;;717.10;1561.60;;;;;;5015655;28;20033;-79
2022/07/12 13:20:32;;;;;;;7.93;1.50;;;691.90;1536.00;;;;;;5033625;28;20025;-80
2022/07/12 13:22:59;;;;;;;4.50;1.80;;;691.90;1561.60;;;;;;5016218;28;20025;-80
2022/07/12 13:25:25;;;;;;;4.45;2.13;;;717.00;1587.20;;;;;;5015843;28;20057;-78
2022/07/12 13:27:52;;;;;;;3.83;2.08;;;717.40;1536.00;;;;;;5016147;28;20029;-79
2022/07/12 13:30:18;;;;;;;4.43;1.90;;;742.40;1510.40;;;;;;5015810;28;20029;-79
2022/07/12 13:32:44;;;;;;;6.30;2.00;;;742.70;1510.40;;;;;;5015702;28;20033;-79
2022/07/12 13:35:12;;;;;;;6.80;1.80;;;742.40;1536.00;;;;;;5015957;28;20141;-81
2022/07/12 13:37:40;;;;;;;4.90;1.80;;;742.60;1561.60;;;;;;5015449;28;20045;-79
2022/07/12 13:40:16;;;;;;;4.60;1.67;;;742.90;1536.00;;;;;;5015070;28;20029;-81
2022/07/12 13:42:50;;;;;;;7.68;1.75;;;743.00;1510.40;;;;;;5016762;28;20025;-82
2022/07/12 13:45:25;;;;;;;4.57;2.20;;;743.00;1510.40;;;;;;5016246;28;20148;-81
2022/07/12 13:47:53;;;;;;;4.85;2.22;;;743.10;1510.40;;;;;;5016266;28;20033;-83
2022/07/12 13:50:20;;;;;;;5.07;2.10;;;743.00;1510.40;;;;;;5015959;28;20032;-81